WXM80 ListenWXM80 Stop

You find our weather info also at:

UK Metoffice

WeatherCloud

Weather Underground

Northeastern Weather Network

AWEKAS

Citizen Weather Observer Program (CWOP)

HAMweather, WeatherForYou, PWS Weather


Weather Underground History page Text

Daily Summary for June 20, 2017 Units:  English    Metric   Both
« Previous Day
Next Day »
Daily Weekly Monthly Yearly Custom
  High: Low: Average:
Temperature: 89.0 °F 69.3 °F 77.3 °F
Dew Point: 72.8 °F 57.0 °F 65.1 °F
Humidity: 98 % 36 % 70 %
Wind Speed: 8.8 mph 0.0 mph 2.4 mph
Wind Gust: 16.1 mph - -
Wind:- - WSW
Pressure: 29.91 in 29.78 in -
Precipitation: 0.02 in    
Historical Graphs
 
 
Tabular Data for June 20, 2017
Time Temperature Dew Point Pressure Wind Wind Speed Wind Gust Humidity Rainfall Rate (Hourly)
00:01 69.3 °F 68.4 °F 29.84 in SSW 1.3 mph 3.0 mph 97 % 0.00 in
00:07 69.3 °F 68.4 °F 29.84 in South 1.8 mph 6.9 mph 97 % 0.00 in
00:11 69.3 °F 68.4 °F 29.84 in South 0.3 mph 3.5 mph 97 % 0.00 in
00:17 69.3 °F 68.4 °F 29.84 in SSE 2.0 mph 4.6 mph 97 % 0.00 in
00:22 69.3 °F 68.4 °F 29.84 in South 0.8 mph 4.6 mph 97 % 0.00 in
00:27 69.3 °F 68.4 °F 29.82 in SW 4.3 mph 11.5 mph 97 % 0.00 in
00:32 69.4 °F 68.5 °F 29.82 in SW 1.2 mph 3.5 mph 97 % 0.00 in
00:37 69.4 °F 68.5 °F 29.82 in SW 0.6 mph 3.5 mph 97 % 0.00 in
00:42 69.4 °F 68.5 °F 29.82 in SW 2.2 mph 4.6 mph 97 % 0.00 in
00:47 69.4 °F 68.5 °F 29.81 in SW 0.3 mph 3.5 mph 97 % 0.00 in
00:52 69.4 °F 68.5 °F 29.81 in SSE 1.1 mph 3.5 mph 97 % 0.00 in
00:57 69.4 °F 68.5 °F 29.81 in South 1.3 mph 3.5 mph 97 % 0.01 in
01:02 69.4 °F 68.5 °F 29.81 in SSW 0.1 mph 1.2 mph 97 % 0.01 in
01:07 69.5 °F 68.6 °F 29.81 in South 0.3 mph 3.5 mph 97 % 0.01 in
01:12 69.5 °F 68.6 °F 29.81 in SE 1.1 mph 4.6 mph 97 % 0.01 in
01:17 69.6 °F 68.7 °F 29.81 in South 1.7 mph 3.0 mph 97 % 0.01 in
01:22 69.6 °F 68.7 °F 29.81 in SE 1.4 mph 3.5 mph 97 % 0.01 in
01:27 69.7 °F 68.8 °F 29.80 in WSW 1.9 mph 4.0 mph 97 % 0.01 in
01:32 69.7 °F 68.8 °F 29.80 in SSW 1.4 mph 5.0 mph 97 % 0.01 in
01:38 69.7 °F 68.8 °F 29.80 in SW 1.4 mph 5.8 mph 97 % 0.01 in
01:43 69.7 °F 68.8 °F 29.80 in SW 2.1 mph 6.9 mph 97 % 0.01 in
01:48 69.8 °F 68.9 °F 29.80 in SW 1.1 mph 3.5 mph 97 % 0.01 in
01:53 69.8 °F 68.9 °F 29.80 in SSW 1.3 mph 4.6 mph 97 % 0.01 in
01:58 69.8 °F 68.9 °F 29.80 in WSW 0.9 mph 3.5 mph 97 % 0.00 in
02:03 69.8 °F 68.9 °F 29.80 in SW 0.3 mph 3.0 mph 97 % 0.00 in
02:08 69.8 °F 68.9 °F 29.80 in WSW 2.3 mph 6.9 mph 97 % 0.00 in
02:13 69.8 °F 68.9 °F 29.80 in SSW 2.9 mph 4.0 mph 97 % 0.00 in
02:18 69.8 °F 68.9 °F 29.80 in Calm   1.2 mph 97 % 0.00 in
02:23 69.8 °F 68.9 °F 29.80 in SSW 0.4 mph 2.3 mph 97 % 0.00 in
02:28 69.8 °F 68.9 °F 29.80 in SSW 0.3 mph 2.3 mph 97 % 0.00 in
02:33 69.8 °F 68.9 °F 29.80 in SSW 1.1 mph 3.5 mph 97 % 0.00 in
02:38 69.8 °F 68.9 °F 29.81 in South 0.3 mph 3.5 mph 97 % 0.00 in
02:43 69.8 °F 68.9 °F 29.81 in SSW 3.3 mph 3.5 mph 97 % 0.00 in
02:48 69.8 °F 68.9 °F 29.81 in SSW 1.6 mph 3.5 mph 97 % 0.00 in
02:53 69.7 °F 68.8 °F 29.81 in WSW 0.1 mph 1.2 mph 97 % 0.00 in
02:59 69.7 °F 68.8 °F 29.81 in SW 0.9 mph 3.5 mph 97 % 0.01 in
03:04 69.6 °F 68.7 °F 29.80 in SSW 1.7 mph 3.5 mph 97 % 0.01 in
03:09 69.6 °F 68.7 °F 29.80 in SW 0.9 mph 3.5 mph 97 % 0.01 in
03:14 69.6 °F 68.7 °F 29.80 in NW 1.4 mph 3.5 mph 97 % 0.01 in
03:19 69.6 °F 68.7 °F 29.80 in WSW 1.9 mph 4.0 mph 97 % 0.01 in
03:24 69.6 °F 68.7 °F 29.80 in SW 1.0 mph 6.9 mph 97 % 0.01 in
03:29 69.6 °F 68.7 °F 29.80 in WSW 1.1 mph 4.6 mph 97 % 0.01 in
03:34 69.6 °F 68.7 °F 29.80 in SW 1.5 mph 4.6 mph 97 % 0.01 in
03:39 69.6 °F 68.7 °F 29.79 in SW 0.3 mph 6.9 mph 97 % 0.01 in
03:44 69.7 °F 68.8 °F 29.80 in SW 1.4 mph 4.0 mph 97 % 0.01 in
03:49 69.7 °F 68.8 °F 29.79 in WSW 0.7 mph 2.0 mph 97 % 0.01 in
03:54 69.7 °F 69.1 °F 29.80 in SW 0.1 mph 3.5 mph 98 % 0.01 in
03:59 69.7 °F 69.1 °F 29.80 in WSW 0.4 mph 3.5 mph 98 % 0.00 in
04:04 69.8 °F 69.2 °F 29.80 in WSW 0.8 mph 2.3 mph 98 % 0.00 in
04:09 69.8 °F 69.2 °F 29.80 in Calm     98 % 0.00 in
04:14 69.8 °F 69.2 °F 29.79 in SSW 1.3 mph 3.5 mph 98 % 0.00 in
04:19 69.9 °F 69.3 °F 29.79 in SSW 0.2 mph 1.2 mph 98 % 0.00 in
04:24 69.9 °F 69.3 °F 29.79 in Calm   3.5 mph 98 % 0.00 in
04:29 69.9 °F 69.3 °F 29.79 in WSW 0.5 mph 2.3 mph 98 % 0.00 in
04:34 69.9 °F 69.3 °F 29.78 in SW 0.1 mph 1.2 mph 98 % 0.00 in
04:39 69.9 °F 69.3 °F 29.79 in WSW 0.8 mph 3.5 mph 98 % 0.00 in
04:44 69.9 °F 69.3 °F 29.79 in WSW 0.3 mph 2.0 mph 98 % 0.00 in
04:49 69.9 °F 69.3 °F 29.79 in WSW 0.2 mph 2.0 mph 98 % 0.00 in
04:54 69.9 °F 69.3 °F 29.79 in WSW 0.8 mph 3.0 mph 98 % 0.00 in
04:59 69.8 °F 69.2 °F 29.80 in WSW 2.2 mph 2.3 mph 98 % 0.00 in
05:05 69.9 °F 69.3 °F 29.80 in WSW 0.8 mph   98 % 0.00 in
05:10 69.9 °F 69.3 °F 29.79 in Calm   1.2 mph 98 % 0.00 in
05:15 69.9 °F 69.3 °F 29.80 in West 0.5 mph 1.2 mph 98 % 0.00 in
05:20 69.9 °F 69.3 °F 29.79 in Calm   2.3 mph 98 % 0.00 in
05:25 69.9 °F 69.3 °F 29.80 in WSW 0.4 mph 3.5 mph 98 % 0.00 in
05:30 69.9 °F 69.3 °F 29.80 in SW 1.9 mph 4.0 mph 98 % 0.00 in
05:35 69.9 °F 69.3 °F 29.80 in WSW 0.5 mph 3.5 mph 98 % 0.00 in
05:40 69.9 °F 69.3 °F 29.80 in Calm   1.2 mph 98 % 0.00 in
05:45 69.9 °F 69.3 °F 29.80 in SW 0.2 mph 2.3 mph 98 % 0.00 in
05:50 70.0 °F 69.4 °F 29.80 in SW 0.4 mph 3.5 mph 98 % 0.00 in
05:55 70.0 °F 69.4 °F 29.80 in WSW 0.5 mph 3.5 mph 98 % 0.00 in
06:00 70.1 °F 69.5 °F 29.80 in West 1.1 mph 3.5 mph 98 % 0.00 in
06:05 70.1 °F 69.5 °F 29.80 in WNW 0.2 mph 1.2 mph 98 % 0.00 in
06:10 70.1 °F 69.5 °F 29.80 in SSW 0.3 mph 2.3 mph 98 % 0.00 in
06:15 70.1 °F 69.5 °F 29.80 in NNW 0.1 mph 1.2 mph 98 % 0.00 in
06:20 70.1 °F 69.5 °F 29.80 in SW 1.8 mph 5.8 mph 98 % 0.00 in
06:25 70.2 °F 69.6 °F 29.80 in WSW 2.4 mph 4.6 mph 98 % 0.00 in
06:30 70.2 °F 69.6 °F 29.80 in West 0.4 mph 2.3 mph 98 % 0.00 in
06:35 70.2 °F 69.6 °F 29.80 in Calm     98 % 0.00 in
06:40 70.2 °F 69.6 °F 29.80 in Calm     98 % 0.00 in
06:45 70.2 °F 69.6 °F 29.81 in Calm     98 % 0.00 in
06:50 70.3 °F 69.7 °F 29.81 in Calm     98 % 0.00 in
06:54 70.3 °F 69.7 °F 29.81 in Calm     98 % 0.00 in
06:59 70.6 °F 70.0 °F 29.81 in SE 0.4 mph 1.2 mph 98 % 0.00 in
07:04 71.0 °F 70.4 °F 29.80 in SE 0.1 mph 2.3 mph 98 % 0.00 in
07:09 71.2 °F 70.6 °F 29.81 in Calm   1.2 mph 98 % 0.00 in
07:14 71.5 °F 70.9 °F 29.81 in WSW 3.7 mph 5.8 mph 98 % 0.00 in
07:19 71.7 °F 71.1 °F 29.82 in SW 2.1 mph 3.5 mph 98 % 0.00 in
07:24 71.9 °F 71.3 °F 29.82 in SW 0.6 mph 4.0 mph 98 % 0.00 in
07:29 72.0 °F 71.4 °F 29.83 in WSW 3.1 mph 4.0 mph 98 % 0.00 in
07:34 72.1 °F 71.5 °F 29.83 in WSW 3.0 mph 4.6 mph 98 % 0.00 in
07:39 72.2 °F 71.6 °F 29.83 in SW 1.5 mph 3.5 mph 98 % 0.00 in
07:44 72.2 °F 71.6 °F 29.84 in SSW 3.4 mph 6.0 mph 98 % 0.00 in
07:49 72.2 °F 71.6 °F 29.84 in West 0.5 mph 2.3 mph 98 % 0.00 in
07:54 72.3 °F 71.7 °F 29.84 in South 0.7 mph 3.5 mph 98 % 0.00 in
07:59 72.4 °F 71.8 °F 29.84 in WNW 1.2 mph 6.9 mph 98 % 0.00 in
08:04 72.5 °F 71.9 °F 29.84 in SW 1.6 mph 6.9 mph 98 % 0.00 in
08:09 72.6 °F 72.0 °F 29.83 in WSW 0.5 mph 3.5 mph 98 % 0.00 in
08:14 72.6 °F 72.0 °F 29.83 in WSW 1.5 mph 3.5 mph 98 % 0.00 in
08:19 72.7 °F 72.1 °F 29.83 in WSW 2.2 mph 3.5 mph 98 % 0.00 in
08:24 72.8 °F 72.2 °F 29.83 in WNW 1.7 mph 6.9 mph 98 % 0.00 in
08:29 72.9 °F 72.3 °F 29.84 in WSW 1.5 mph 4.0 mph 98 % 0.00 in
08:35 73.0 °F 72.4 °F 29.83 in SW 4.7 mph 6.9 mph 98 % 0.00 in
08:40 73.2 °F 72.6 °F 29.83 in WNW 1.9 mph 4.0 mph 98 % 0.00 in
08:45 73.4 °F 72.8 °F 29.84 in WSW 2.4 mph 6.0 mph 98 % 0.00 in
08:50 73.5 °F 72.6 °F 29.83 in West 2.3 mph 5.8 mph 97 % 0.00 in
08:55 73.5 °F 72.6 °F 29.83 in SW 3.8 mph 11.5 mph 97 % 0.00 in
09:00 73.5 °F 72.3 °F 29.83 in WNW 4.6 mph 6.9 mph 96 % 0.00 in
09:05 73.6 °F 72.4 °F 29.83 in WSW 2.9 mph 5.8 mph 96 % 0.00 in
09:10 73.7 °F 72.5 °F 29.84 in WSW 1.9 mph 6.0 mph 96 % 0.00 in
09:15 73.8 °F 72.3 °F 29.84 in SSW 4.5 mph 9.2 mph 95 % 0.00 in
09:20 73.8 °F 71.6 °F 29.84 in SW 3.7 mph 6.9 mph 93 % 0.00 in
09:25 73.9 °F 71.1 °F 29.84 in SSW 4.3 mph 8.1 mph 91 % 0.00 in
09:30 74.1 °F 71.3 °F 29.84 in SW 2.5 mph 4.6 mph 91 % 0.00 in
09:35 74.3 °F 70.5 °F 29.84 in SW 3.8 mph 9.2 mph 88 % 0.00 in
09:40 74.6 °F 69.8 °F 29.83 in SW 5.9 mph 11.5 mph 85 % 0.00 in
09:45 75.1 °F 70.3 °F 29.83 in WNW 6.0 mph 10.4 mph 85 % 0.00 in
09:50 75.8 °F 71.0 °F 29.84 in SW 2.5 mph 4.0 mph 85 % 0.00 in
09:55 76.5 °F 70.9 °F 29.84 in NW 5.3 mph 9.2 mph 83 % 0.00 in
10:00 77.2 °F 70.5 °F 29.83 in WNW 2.6 mph 6.9 mph 80 % 0.00 in
10:05 78.0 °F 70.2 °F 29.84 in WNW 3.3 mph 6.9 mph 77 % 0.00 in
10:10 78.7 °F 68.9 °F 29.84 in WSW 3.3 mph 9.2 mph 72 % 0.00 in
10:16 79.3 °F 69.1 °F 29.84 in WNW 5.4 mph 7.0 mph 71 % 0.00 in
10:21 79.8 °F 69.2 °F 29.84 in WSW 7.0 mph 12.0 mph 70 % 0.00 in
10:26 80.4 °F 69.7 °F 29.84 in West 7.0 mph 14.0 mph 70 % 0.00 in
10:31 80.9 °F 70.2 °F 29.85 in West 1.0 mph 12.0 mph 70 % 0.00 in
10:36 81.4 °F 68.5 °F 29.84 in SW 6.0 mph 10.0 mph 65 % 0.00 in
10:41 81.9 °F 68.5 °F 29.85 in SW 6.0 mph 13.0 mph 64 % 0.00 in
10:46 82.3 °F 68.4 °F 29.85 in SW 6.0 mph 13.0 mph 63 % 0.00 in
10:51 82.6 °F 68.3 °F 29.85 in SW 2.0 mph 9.0 mph 62 % 0.00 in
10:56 83.0 °F 67.7 °F 29.85 in SW 5.0 mph 15.0 mph 60 % 0.00 in
11:01 83.4 °F 68.5 °F 29.85 in West 2.3 mph 5.8 mph 61 % 0.00 in
11:06 83.7 °F 67.4 °F 29.85 in WSW 6.1 mph 12.7 mph 58 % 0.00 in
11:11 84.1 °F 67.7 °F 29.85 in WSW 3.0 mph 10.0 mph 58 % 0.00 in
11:16 84.4 °F 67.0 °F 29.85 in WSW 5.0 mph 12.0 mph 56 % 0.00 in
11:21 84.7 °F 67.8 °F 29.85 in WSW 5.0 mph 12.0 mph 57 % 0.00 in
11:26 84.9 °F 66.4 °F 29.85 in WSW 1.0 mph 10.0 mph 54 % 0.00 in
11:31 85.2 °F 66.7 °F 29.85 in WSW 6.0 mph 12.0 mph 54 % 0.00 in
11:36 85.3 °F 66.8 °F 29.86 in West 7.0 mph 13.0 mph 54 % 0.00 in
11:41 85.3 °F 65.7 °F 29.85 in SSW 5.6 mph 8.1 mph 52 % 0.00 in
11:46 85.3 °F 68.3 °F 29.85 in SW 2.2 mph 11.5 mph 57 % 0.00 in
11:51 85.6 °F 66.5 °F 29.85 in WSW 2.0 mph 9.0 mph 53 % 0.00 in
11:56 85.8 °F 66.1 °F 29.86 in WSW 6.0 mph 10.0 mph 52 % 0.00 in
11:57 85.8 °F 65.6 °F 29.86 in SSW 6.9 mph 12.7 mph 51 % 0.00 in
12:02 85.8 °F 66.7 °F 29.86 in WSW 2.7 mph 8.1 mph 53 % 0.00 in
12:07 85.7 °F 67.1 °F 29.86 in West 3.9 mph 8.1 mph 54 % 0.00 in
12:12 85.7 °F 66.0 °F 29.86 in SW 4.4 mph 9.2 mph 52 % 0.00 in
12:17 85.9 °F 66.8 °F 29.86 in WSW 4.2 mph 6.9 mph 53 % 0.00 in
12:22 86.0 °F 65.2 °F 29.86 in WSW 7.2 mph 14.0 mph 50 % 0.00 in
12:27 85.9 °F 65.1 °F 29.86 in WNW 3.7 mph 11.5 mph 50 % 0.00 in
12:32 86.0 °F 66.3 °F 29.86 in WSW 5.1 mph 9.2 mph 52 % 0.00 in
12:37 86.1 °F 67.0 °F 29.86 in WNW 2.0 mph 5.8 mph 53 % 0.00 in
12:42 86.5 °F 66.2 °F 29.86 in West 4.6 mph 7.0 mph 51 % 0.00 in
12:47 86.9 °F 64.2 °F 29.86 in WNW 1.8 mph 6.0 mph 47 % 0.00 in
12:53 87.1 °F 63.8 °F 29.85 in WNW 2.7 mph 10.4 mph 46 % 0.00 in
12:58 87.3 °F 64.0 °F 29.86 in SSW 1.5 mph 8.1 mph 46 % 0.00 in
13:03 87.6 °F 63.0 °F 29.85 in West 3.3 mph 10.4 mph 44 % 0.00 in
13:08 87.7 °F 66.2 °F 29.85 in West 6.2 mph 11.5 mph 49 % 0.00 in
13:13 87.8 °F 64.4 °F 29.85 in SW 5.0 mph 10.4 mph 46 % 0.00 in
13:18 87.8 °F 65.1 °F 29.85 in WSW 3.1 mph 5.0 mph 47 % 0.00 in
13:23 87.9 °F 62.6 °F 29.85 in WSW 6.1 mph 9.2 mph 43 % 0.00 in
13:28 88.0 °F 63.4 °F 29.85 in West 5.2 mph 9.2 mph 44 % 0.00 in
13:33 88.1 °F 64.7 °F 29.85 in SW 3.6 mph 8.0 mph 46 % 0.00 in
13:38 88.0 °F 62.0 °F 29.85 in SW 1.8 mph 10.4 mph 42 % 0.00 in
13:39 88.0 °F 63.4 °F 29.85 in WNW 2.1 mph 10.4 mph 44 % 0.00 in
13:43 88.0 °F 63.4 °F 29.85 in WSW 0.3 mph 3.5 mph 44 % 0.00 in
13:49 88.1 °F 63.4 °F 29.85 in South 2.8 mph 5.0 mph 44 % 0.00 in
13:54 88.3 °F 62.3 °F 29.84 in WSW 5.4 mph 8.1 mph 42 % 0.00 in
13:59 88.3 °F 63.0 °F 29.84 in SSW 4.6 mph 10.4 mph 43 % 0.00 in
14:04 88.4 °F 62.4 °F 29.84 in WSW 4.7 mph 10.4 mph 42 % 0.00 in
14:09 88.5 °F 62.5 °F 29.84 in West 3.4 mph 9.2 mph 42 % 0.00 in
14:14 88.4 °F 63.7 °F 29.84 in SSW 3.3 mph 4.6 mph 44 % 0.00 in
14:19 88.6 °F 63.2 °F 29.84 in WNW 1.1 mph 8.1 mph 43 % 0.00 in
14:24 88.7 °F 62.0 °F 29.84 in SSW 5.2 mph 9.0 mph 41 % 0.00 in
14:29 88.7 °F 63.3 °F 29.84 in WSW 4.1 mph 9.0 mph 43 % 0.00 in
14:34 88.8 °F 62.1 °F 29.84 in WSW 5.5 mph 11.5 mph 41 % 0.00 in
14:39 88.8 °F 62.7 °F 29.84 in NW 4.5 mph 8.0 mph 42 % 0.00 in
14:44 88.9 °F 66.1 °F 29.84 in West 4.0 mph 8.1 mph 47 % 0.00 in
14:49 89.0 °F 62.2 °F 29.84 in WSW 5.9 mph 11.5 mph 41 % 0.00 in
14:54 89.0 °F 64.3 °F 29.84 in WSW 3.2 mph 6.9 mph 44 % 0.00 in
14:59 89.0 °F 62.9 °F 29.84 in SW 4.5 mph 11.5 mph 42 % 0.00 in
15:04 88.8 °F 62.7 °F 29.84 in SW 4.6 mph 8.1 mph 42 % 0.00 in
15:09 88.7 °F 62.0 °F 29.84 in WNW 3.9 mph 8.1 mph 41 % 0.00 in
15:14 88.5 °F 63.1 °F 29.84 in West 3.8 mph 9.2 mph 43 % 0.00 in
15:19 88.5 °F 60.4 °F 29.84 in West 7.3 mph 12.7 mph 39 % 0.00 in
15:24 88.5 °F 61.1 °F 29.84 in SSW 5.5 mph 6.9 mph 40 % 0.00 in
15:29 88.6 °F 61.9 °F 29.84 in SW 3.4 mph 9.2 mph 41 % 0.00 in
15:34 88.7 °F 60.6 °F 29.84 in SW 7.5 mph 10.4 mph 39 % 0.00 in
15:39 88.6 °F 59.7 °F 29.84 in West 6.9 mph 11.5 mph 38 % 0.00 in
15:44 88.5 °F 61.1 °F 29.84 in NW 5.2 mph 10.4 mph 40 % 0.00 in
15:49 88.5 °F 59.7 °F 29.84 in SSW 6.6 mph 6.9 mph 38 % 0.00 in
15:54 88.5 °F 60.4 °F 29.84 in WNW 7.3 mph 11.5 mph 39 % 0.00 in
15:59 88.5 °F 60.4 °F 29.84 in WSW 4.2 mph 6.9 mph 39 % 0.00 in
16:04 88.5 °F 61.1 °F 29.84 in SW 5.3 mph 8.1 mph 40 % 0.00 in
16:09 88.7 °F 59.8 °F 29.84 in West 5.8 mph 10.4 mph 38 % 0.00 in
16:14 88.6 °F 59.0 °F 29.84 in SW 8.8 mph 16.1 mph 37 % 0.00 in
16:19 88.4 °F 58.1 °F 29.85 in WSW 6.7 mph 16.1 mph 36 % 0.00 in
16:25 87.8 °F 60.5 °F 29.85 in West 4.4 mph 6.0 mph 40 % 0.00 in
16:30 87.4 °F 59.4 °F 29.85 in SW 7.2 mph 11.5 mph 39 % 0.00 in
16:35 87.1 °F 59.8 °F 29.85 in WSW 8.4 mph 16.1 mph 40 % 0.00 in
16:40 86.9 °F 59.0 °F 29.85 in WSW 6.1 mph 11.5 mph 39 % 0.00 in
16:45 86.7 °F 60.2 °F 29.85 in WNW 3.0 mph 4.6 mph 41 % 0.00 in
16:50 86.7 °F 59.5 °F 29.85 in WNW 4.8 mph 8.0 mph 40 % 0.00 in
16:55 86.6 °F 59.4 °F 29.85 in SSW 2.7 mph 9.2 mph 40 % 0.00 in
17:00 86.5 °F 59.3 °F 29.85 in SW 4.5 mph 10.0 mph 40 % 0.00 in
17:05 86.5 °F 58.6 °F 29.85 in SW 8.5 mph 15.0 mph 39 % 0.00 in
17:10 86.2 °F 59.0 °F 29.85 in WSW 4.0 mph 8.0 mph 40 % 0.00 in
17:15 85.9 °F 58.8 °F 29.85 in SSW 2.1 mph 8.1 mph 40 % 0.00 in
17:21 85.7 °F 59.3 °F 29.85 in WSW 2.2 mph 11.0 mph 41 % 0.00 in
17:26 85.5 °F 57.7 °F 29.85 in SW 7.0 mph 14.0 mph 39 % 0.00 in
17:32 85.0 °F 58.0 °F 29.85 in WNW 7.5 mph 11.5 mph 40 % 0.00 in
17:37 84.8 °F 58.5 °F 29.85 in West 2.2 mph 9.2 mph 41 % 0.00 in
17:42 84.6 °F 58.3 °F 29.85 in West 5.9 mph 10.4 mph 41 % 0.00 in
17:47 84.4 °F 58.1 °F 29.85 in SW 5.1 mph 13.8 mph 41 % 0.00 in
17:52 84.1 °F 57.9 °F 29.85 in SW 8.7 mph 16.1 mph 41 % 0.00 in
17:57 83.8 °F 57.6 °F 29.85 in WSW 7.6 mph 12.7 mph 41 % 0.00 in
18:02 83.6 °F 58.1 °F 29.86 in SSW 5.7 mph 12.7 mph 42 % 0.00 in
18:07 83.4 °F 57.9 °F 29.85 in SSE 3.9 mph 6.9 mph 42 % 0.00 in
18:12 83.3 °F 57.1 °F 29.86 in SW 5.1 mph 12.7 mph 41 % 0.00 in
18:17 83.1 °F 57.0 °F 29.86 in SW 6.6 mph 11.5 mph 41 % 0.00 in
18:22 83.0 °F 57.5 °F 29.86 in WSW 5.3 mph 8.0 mph 42 % 0.00 in
18:27 82.8 °F 58.7 °F 29.86 in West 4.8 mph 9.2 mph 44 % 0.00 in
18:32 82.7 °F 57.9 °F 29.86 in SW 5.7 mph 8.1 mph 43 % 0.00 in
18:37 82.6 °F 58.5 °F 29.86 in SW 3.2 mph 9.2 mph 44 % 0.00 in
18:42 82.5 °F 58.4 °F 29.87 in SW 4.4 mph 8.1 mph 44 % 0.00 in
18:47 82.4 °F 57.7 °F 29.87 in SW 2.8 mph 5.8 mph 43 % 0.00 in
18:52 82.3 °F 58.2 °F 29.87 in WSW 3.4 mph 6.9 mph 44 % 0.00 in
18:57 82.1 °F 58.0 °F 29.88 in SW 3.3 mph 6.9 mph 44 % 0.00 in
19:02 81.9 °F 58.5 °F 29.87 in WNW 0.5 mph 5.8 mph 45 % 0.00 in
19:07 81.8 °F 58.4 °F 29.88 in West 1.7 mph 8.1 mph 45 % 0.00 in
19:12 81.6 °F 58.2 °F 29.88 in West 2.7 mph 9.2 mph 45 % 0.00 in
19:18 81.5 °F 58.7 °F 29.88 in WSW 2.2 mph 6.0 mph 46 % 0.00 in
19:23 81.4 °F 58.6 °F 29.88 in SW 1.9 mph 6.0 mph 46 % 0.00 in
19:28 81.2 °F 58.5 °F 29.88 in NW 1.0 mph 5.8 mph 46 % 0.00 in
19:33 81.1 °F 58.4 °F 29.88 in WSW 3.9 mph 6.9 mph 46 % 0.00 in
19:38 80.9 °F 58.2 °F 29.88 in SW 2.2 mph 4.6 mph 46 % 0.00 in
19:43 80.8 °F 58.1 °F 29.88 in West 2.2 mph 4.6 mph 46 % 0.00 in
19:48 80.6 °F 57.9 °F 29.88 in WSW 1.8 mph 3.5 mph 46 % 0.00 in
19:53 80.4 °F 58.3 °F 29.88 in WSW 0.5 mph 2.3 mph 47 % 0.00 in
19:58 80.2 °F 58.7 °F 29.89 in SW 0.8 mph 3.5 mph 48 % 0.00 in
20:03 80.0 °F 59.1 °F 29.89 in Calm   1.2 mph 49 % 0.00 in
20:08 79.8 °F 59.5 °F 29.89 in Calm     50 % 0.00 in
20:13 79.4 °F 60.2 °F 29.89 in Calm     52 % 0.00 in
20:18 79.1 °F 60.0 °F 29.89 in WSW 0.1 mph 1.2 mph 52 % 0.00 in
20:23 78.7 °F 58.5 °F 29.89 in WSW 0.9 mph 2.3 mph 50 % 0.00 in
20:28 78.4 °F 58.8 °F 29.89 in Calm   1.2 mph 51 % 0.00 in
20:33 78.0 °F 58.9 °F 29.89 in Calm     52 % 0.00 in
20:38 77.7 °F 58.7 °F 29.89 in WSW 0.2 mph 1.2 mph 52 % 0.00 in
20:44 77.4 °F 58.4 °F 29.89 in Calm     52 % 0.00 in
20:48 77.0 °F 58.6 °F 29.89 in Calm     53 % 0.00 in
20:54 76.6 °F 59.2 °F 29.89 in Calm   1.2 mph 55 % 0.00 in
20:59 76.2 °F 59.4 °F 29.90 in Calm     56 % 0.00 in
21:04 75.8 °F 59.5 °F 29.90 in Calm     57 % 0.00 in
21:09 75.6 °F 59.8 °F 29.90 in Calm     58 % 0.00 in
21:14 75.2 °F 59.4 °F 29.90 in Calm     58 % 0.00 in
21:19 74.8 °F 59.0 °F 29.90 in Calm     58 % 0.00 in
21:24 74.5 °F 58.3 °F 29.90 in Calm     57 % 0.00 in
21:29 74.2 °F 58.5 °F 29.90 in Calm     58 % 0.00 in
21:34 73.8 °F 59.0 °F 29.90 in Calm     60 % 0.00 in
21:36 73.8 °F 59.0 °F 29.91 in Calm     60 % 0.00 in
21:41 73.5 °F 58.8 °F 29.90 in Calm     60 % 0.00 in
21:46 73.2 °F 58.9 °F 29.90 in Calm     61 % 0.00 in
21:51 72.9 °F 59.1 °F 29.90 in Calm     62 % 0.00 in
21:56 72.6 °F 58.8 °F 29.91 in Calm     62 % 0.00 in
22:01 72.4 °F 59.1 °F 29.91 in Calm   1.2 mph 63 % 0.00 in
22:06 72.2 °F 59.3 °F 29.91 in Calm   1.0 mph 64 % 0.00 in
22:11 71.9 °F 59.1 °F 29.91 in Calm   1.2 mph 64 % 0.00 in
22:14 71.8 °F 59.4 °F 29.90 in Calm   2.3 mph 65 % 0.00 in
22:19 71.7 °F 59.7 °F 29.91 in Calm     66 % 0.00 in
22:24 71.5 °F 60.4 °F 29.91 in Calm   1.2 mph 68 % 0.00 in
22:29 71.3 °F 60.6 °F 29.91 in WSW 0.1 mph 1.2 mph 69 % 0.00 in
22:34 71.2 °F 60.5 °F 29.90 in Calm     69 % 0.00 in
22:39 71.0 °F 60.7 °F 29.91 in Calm     70 % 0.00 in
22:44 70.8 °F 60.9 °F 29.90 in Calm     71 % 0.00 in
22:49 70.6 °F 61.1 °F 29.90 in WSW 0.6 mph 2.3 mph 72 % 0.00 in
22:54 70.5 °F 61.4 °F 29.91 in Calm     73 % 0.00 in
22:59 70.3 °F 61.2 °F 29.90 in Calm   1.2 mph 73 % 0.00 in
23:04 70.2 °F 61.5 °F 29.91 in Calm     74 % 0.00 in
23:09 70.1 °F 61.4 °F 29.90 in Calm     74 % 0.00 in
23:14 69.9 °F 61.6 °F 29.90 in Calm     75 % 0.00 in
23:19 69.8 °F 61.9 °F 29.91 in Calm     76 % 0.00 in
23:24 69.7 °F 61.8 °F 29.91 in Calm     76 % 0.00 in
23:29 69.6 °F 62.1 °F 29.91 in Calm   1.0 mph 77 % 0.00 in
23:34 69.5 °F 62.0 °F 29.90 in WSW 0.1 mph 1.2 mph 77 % 0.00 in
23:39 69.4 °F 61.9 °F 29.90 in WSW 0.6 mph 3.5 mph 77 % 0.00 in
23:44 69.4 °F 61.9 °F 29.90 in SSW 0.3 mph 2.3 mph 77 % 0.00 in
23:49 69.4 °F 62.2 °F 29.90 in WSW 1.3 mph 3.5 mph 78 % 0.00 in
23:54 69.5 °F 62.3 °F 29.90 in SW 1.4 mph 3.5 mph 78 % 0.00 in
23:59 69.6 °F 62.4 °F 29.90 in SSW 1.7 mph 3.5 mph 78 % 0.00 in
Crab Meadow Weather
Compliments of Weather Underground - 3 mb

Script developed by  Jim McMurry - jmcmurry@mwt.net Adapted for the template by  Wim van der Kuil - Leuven-Template.eu

Weather Terms: Dew Point - A measure of atmospheric moisture. It is the temperature to which air must be cooled in order to reach saturation (assuming pressure and moisture content are constant).